Terminal Aerodrome Forecast
Issued by NWS Duluth, MN

Home | Current Version | Previous Version | Text Only | Print | Product List | Glossary On
Versions: 1 2 3 4 5 6 7 8 9 10 11 12 13 14 15 16 17 18 19
000
FTUS43 KDLH 212336
TAFINL
TAF
KINL 212336Z 2200/2224 03004KT P6SM BKN120
     FM220400 VRB03KT P6SM VCSH OVC050
     FM220700 VRB03KT 5SM -RASN BR OVC008
     FM220900 05004KT 2SM -SN BR OVC008
     FM221200 04004KT 1SM -RASNPL BR OVC003
     FM221600 04006KT 2SM -RASN OVC003
     FM221800 03007KT P6SM VCSH OVC003=

USA.gov is the U.S. government's official web portal to all federal, state and local government web resources and services.